createdAt,value
2019-05-23T00:01:57.021Z,100169.41
2019-05-23T00:04:45.423Z,100179.03
2019-05-23T00:07:18.205Z,100179.52
2019-05-23T00:09:47.680Z,100178.20
2019-05-23T00:12:34.302Z,100177.05
2019-05-23T00:15:07.417Z,100175.72
2019-05-23T00:17:35.875Z,100173.38
2019-05-23T00:20:07.253Z,100177.03
2019-05-23T00:22:36.067Z,100181.02
2019-05-23T00:25:07.794Z,100174.23
2019-05-23T00:27:36.271Z,100175.23
2019-05-23T00:30:11.726Z,100168.95
2019-05-23T00:32:48.114Z,100174.08
2019-05-23T00:35:17.627Z,100174.41
2019-05-23T00:37:47.031Z,100170.78
2019-05-23T00:40:16.960Z,100169.77
2019-05-23T00:42:45.702Z,100165.28
2019-05-23T00:45:15.309Z,100159.02
2019-05-23T00:47:44.750Z,100155.19
2019-05-23T00:50:16.498Z,100150.86
2019-05-23T00:52:45.279Z,100156.28
2019-05-23T00:55:14.472Z,100154.83
2019-05-23T00:57:44.976Z,100151.90
2019-05-23T01:00:16.570Z,100152.74
2019-05-23T01:02:46.490Z,100154.06
2019-05-23T01:05:15.136Z,100150.25
2019-05-23T01:07:45.194Z,100152.23
2019-05-23T01:10:16.208Z,100152.20
2019-05-23T01:12:45.733Z,100159.13
2019-05-23T01:15:14.738Z,100157.12
2019-05-23T01:17:43.522Z,100153.47
2019-05-23T01:20:14.995Z,100160.69
2019-05-23T01:22:46.386Z,100152.02
2019-05-23T01:25:16.930Z,100155.38
2019-05-23T01:27:45.511Z,100156.38
2019-05-23T01:30:19.427Z,100164.64
2019-05-23T01:32:49.556Z,100159.85
2019-05-23T01:35:20.740Z,100160.73
2019-05-23T01:37:49.603Z,100158.27
2019-05-23T01:40:19.819Z,100160.75
2019-05-23T01:42:49.412Z,100158.63
2019-05-23T01:45:19.622Z,100155.17
2019-05-23T01:47:49.252Z,100160.14
2019-05-23T01:50:20.712Z,100156.78
2019-05-23T01:52:49.395Z,100157.45
2019-05-23T01:55:19.508Z,100152.02
2019-05-23T01:57:49.153Z,100156.31
2019-05-23T02:00:18.812Z,100151.34
2019-05-23T02:02:48.507Z,100155.84
2019-05-23T02:05:18.469Z,100152.36
2019-05-23T02:07:47.798Z,100153.86
2019-05-23T02:10:17.030Z,100153.56
2019-05-23T02:12:46.235Z,100152.41
2019-05-23T02:15:15.655Z,100151.09
2019-05-23T02:17:45.344Z,100151.09
2019-05-23T02:20:16.125Z,100154.72
2019-05-23T02:22:45.103Z,100157.19
2019-05-23T02:25:14.421Z,100158.94
2019-05-23T02:27:42.810Z,100157.71
2019-05-23T02:30:32.194Z,100150.52
2019-05-23T02:32:45.555Z,100159.89
2019-05-23T02:35:15.348Z,100156.39
2019-05-23T02:37:51.596Z,100158.66
2019-05-23T02:40:25.782Z,100156.52
2019-05-23T02:43:05.486Z,100158.30
2019-05-23T02:45:36.188Z,100156.58
2019-05-23T02:48:07.064Z,100160.44
2019-05-23T02:50:47.495Z,100159.17
2019-05-23T02:53:18.247Z,100151.94
2019-05-23T02:55:49.594Z,100156.23
2019-05-23T02:58:39.251Z,100154.16
2019-05-23T03:01:15.255Z,100153.48
2019-05-23T03:03:46.264Z,100148.52
2019-05-23T03:06:16.425Z,100157.09
2019-05-23T03:08:46.150Z,100153.39
2019-05-23T03:11:28.501Z,100150.10
2019-05-23T03:13:59.596Z,100151.24
2019-05-23T03:16:31.926Z,100151.09
2019-05-23T03:19:28.913Z,100152.76
2019-05-23T03:22:00.843Z,100150.33
2019-05-23T03:24:29.551Z,100150.33
2019-05-23T03:28:42.473Z,100148.05
2019-05-23T03:31:28.530Z,100153.98
2019-05-23T03:33:43.713Z,100154.14
2019-05-23T03:36:12.849Z,100153.52
2019-05-23T03:38:42.321Z,100153.01
2019-05-23T03:41:11.085Z,100154.03
2019-05-23T03:43:41.125Z,100150.72
2019-05-23T03:46:11.244Z,100146.87
2019-05-23T03:48:41.502Z,100147.82
2019-05-23T03:51:10.330Z,100148.80
2019-05-23T03:53:39.766Z,100149.50
2019-05-23T03:56:09.904Z,100151.49
2019-05-23T03:58:39.011Z,100158.61
2019-05-23T04:01:09.365Z,100157.99
2019-05-23T04:03:40.191Z,100153.39
2019-05-23T04:06:09.602Z,100160.19
2019-05-23T04:08:38.436Z,100155.05
2019-05-23T04:11:07.145Z,100149.30
2019-05-23T04:13:36.008Z,100160.03
2019-05-23T04:16:04.547Z,100154.23
2019-05-23T04:18:33.772Z,100156.52
2019-05-23T04:21:02.192Z,100153.66
2019-05-23T04:23:30.689Z,100152.92
2019-05-23T04:25:59.909Z,100158.00
2019-05-23T04:28:28.528Z,100154.69
2019-05-23T04:30:57.750Z,100154.40
2019-05-23T04:33:26.746Z,100150.27
2019-05-23T04:35:56.285Z,100152.14
2019-05-23T04:38:25.221Z,100151.10
2019-05-23T04:40:53.772Z,100159.70
2019-05-23T04:43:22.837Z,100158.04
2019-05-23T04:45:51.942Z,100159.26
2019-05-23T04:48:20.593Z,100152.98
2019-05-23T04:50:48.990Z,100165.27
2019-05-23T04:53:17.563Z,100160.85
2019-05-23T04:55:47.275Z,100147.09
2019-05-23T04:58:15.676Z,100152.34
2019-05-23T05:00:44.653Z,100148.30
2019-05-23T05:03:17.595Z,100150.95
2019-05-23T05:05:44.372Z,100151.23
2019-05-23T05:08:13.045Z,100146.91
2019-05-23T05:10:42.913Z,100148.17
2019-05-23T05:13:11.995Z,100148.09
2019-05-23T05:15:40.639Z,100145.14
2019-05-23T05:18:09.652Z,100142.80
2019-05-23T05:20:38.300Z,100142.80
2019-05-23T05:23:07.253Z,100139.83
2019-05-23T05:25:36.038Z,100148.66
2019-05-23T05:28:05.259Z,100151.34
2019-05-23T05:30:34.040Z,100151.34
2019-05-23T05:33:02.551Z,100151.99
2019-05-23T05:35:32.791Z,100151.99
2019-05-23T05:38:01.451Z,100150.45
2019-05-23T05:40:30.761Z,100159.14
2019-05-23T05:42:59.568Z,100160.80
2019-05-23T05:45:28.196Z,100167.44
2019-05-23T05:47:56.766Z,100160.12
2019-05-23T05:50:26.053Z,100164.66
2019-05-23T05:52:55.206Z,100167.29
2019-05-23T05:55:23.674Z,100162.73
2019-05-23T05:57:52.375Z,100166.35
2019-05-23T06:00:25.969Z,100159.56
2019-05-23T06:03:04.659Z,100164.06
2019-05-23T06:05:35.781Z,100161.12
2019-05-23T06:08:06.211Z,100156.86
2019-05-23T06:10:35.750Z,100156.14
2019-05-23T06:13:04.870Z,100153.31
2019-05-23T06:15:34.871Z,100150.56
2019-05-23T06:18:03.612Z,100147.27
2019-05-23T06:20:32.342Z,100144.94
2019-05-23T06:23:01.122Z,100147.39
2019-05-23T06:25:29.659Z,100145.48
2019-05-23T06:27:59.723Z,100150.03
2019-05-23T06:30:32.647Z,100146.95
2019-05-23T06:32:59.676Z,100143.56
2019-05-23T06:35:29.017Z,100144.36
2019-05-23T06:37:57.618Z,100145.52
2019-05-23T06:40:26.357Z,100148.80
2019-05-23T06:42:55.012Z,100143.67
2019-05-23T06:45:23.965Z,100143.63
2019-05-23T06:47:52.445Z,100147.44
2019-05-23T06:50:21.078Z,100145.48
2019-05-23T06:52:49.630Z,100146.98
2019-05-23T06:55:18.238Z,100140.92
2019-05-23T06:57:46.764Z,100134.30
2019-05-23T07:00:17.435Z,100137.34
2019-05-23T07:02:47.294Z,100136.02
2019-05-23T07:05:17.818Z,100142.02
2019-05-23T07:07:46.536Z,100132.02
2019-05-23T07:10:15.305Z,100129.19
2019-05-23T07:12:46.335Z,100131.13
2019-05-23T07:15:14.924Z,100137.19
2019-05-23T07:17:43.574Z,100139.92
2019-05-23T07:20:12.714Z,100135.64
2019-05-23T07:22:41.223Z,100143.53
2019-05-23T07:25:10.742Z,100135.48
2019-05-23T07:27:39.521Z,100145.05
2019-05-23T07:30:13.867Z,100142.25
2019-05-23T07:32:42.403Z,100141.66
2019-05-23T07:35:10.985Z,100138.84
2019-05-23T07:37:39.555Z,100142.16
2019-05-23T07:40:08.143Z,100141.40
2019-05-23T07:42:37.247Z,100144.96
2019-05-23T07:45:08.945Z,100145.45
2019-05-23T07:47:40.031Z,100142.66
2019-05-23T07:50:08.043Z,100139.34
2019-05-23T07:52:36.871Z,100138.36
2019-05-23T07:55:13.639Z,100138.36
2019-05-23T07:57:42.970Z,100144.66
2019-05-23T08:00:13.379Z,100138.94
2019-05-23T08:02:43.800Z,100141.64
2019-05-23T08:05:13.881Z,100137.20
2019-05-23T08:07:42.834Z,100133.40
2019-05-23T08:10:11.587Z,100129.69
2019-05-23T08:12:40.850Z,100129.78
2019-05-23T08:15:11.064Z,100127.33
2019-05-23T08:17:39.568Z,100130.36
2019-05-23T08:20:09.649Z,100134.33
2019-05-23T08:22:38.161Z,100128.05
2019-05-23T08:25:06.929Z,100126.75
2019-05-23T08:27:35.445Z,100123.70
2019-05-23T08:30:06.763Z,100125.75
2019-05-23T08:32:35.715Z,100127.77
2019-05-23T08:35:05.858Z,100129.23
2019-05-23T08:37:35.383Z,100122.94
2019-05-23T08:40:05.919Z,100122.92
2019-05-23T08:42:34.902Z,100125.59
2019-05-23T08:45:05.051Z,100121.89
2019-05-23T08:47:33.439Z,100116.38
2019-05-23T08:50:02.255Z,100114.28
2019-05-23T08:52:30.953Z,100108.91
2019-05-23T08:55:02.452Z,100107.30
2019-05-23T08:57:31.334Z,100099.98
2019-05-23T09:00:00.169Z,100101.87
2019-05-23T09:02:29.535Z,100099.45
2019-05-23T09:05:05.278Z,100094.72
2019-05-23T09:07:28.870Z,100100.64
2019-05-23T09:09:57.514Z,100094.63
2019-05-23T09:12:26.274Z,100094.99
2019-05-23T09:14:54.742Z,100091.22
2019-05-23T09:17:23.214Z,100087.07
2019-05-23T09:19:51.938Z,100086.93
2019-05-23T09:22:20.782Z,100080.59
2019-05-23T09:24:49.724Z,100079.85
2019-05-23T09:27:18.155Z,100081.17
2019-05-23T09:29:46.939Z,100081.45
2019-05-23T09:32:15.636Z,100083.83
2019-05-23T09:34:44.067Z,100080.47
2019-05-23T09:37:13.498Z,100080.27
2019-05-23T09:39:42.149Z,100075.56
2019-05-23T09:42:12.197Z,100082.92
2019-05-23T09:44:40.930Z,100077.77
2019-05-23T09:47:09.360Z,100079.84
2019-05-23T09:49:37.749Z,100066.59
2019-05-23T09:52:08.111Z,100073.59
2019-05-23T09:54:37.184Z,100062.27
2019-05-23T09:57:07.403Z,100066.59
2019-05-23T09:59:35.809Z,100068.16
2019-05-23T10:02:04.414Z,100061.56
2019-05-23T10:04:33.721Z,100070.13
2019-05-23T10:07:02.083Z,100075.22
2019-05-23T10:09:30.553Z,99994.07
2019-05-23T10:11:59.276Z,100065.91
2019-05-23T10:14:29.752Z,100056.20
2019-05-23T10:16:58.207Z,100054.34
2019-05-23T10:19:26.725Z,100052.77
2019-05-23T10:21:55.402Z,100042.37
2019-05-23T10:24:23.874Z,100037.88
2019-05-23T10:26:52.458Z,100037.42
2019-05-23T10:29:20.869Z,100029.31
2019-05-23T10:31:49.278Z,100035.31
2019-05-23T10:34:17.707Z,100038.09
2019-05-23T10:36:46.372Z,100034.19
2019-05-23T10:39:16.828Z,100035.65
2019-05-23T10:41:45.230Z,100039.58
2019-05-23T10:44:13.785Z,100034.41
2019-05-23T10:46:42.366Z,100033.86
2019-05-23T10:49:11.061Z,100027.36
2019-05-23T10:51:39.539Z,100025.58
2019-05-23T10:54:08.474Z,100020.09
2019-05-23T10:56:37.389Z,100015.68
2019-05-23T10:59:06.148Z,100021.24
2019-05-23T11:01:34.865Z,100013.33
2019-05-23T11:04:04.152Z,100020.94
2019-05-23T11:06:33.484Z,100008.31
2019-05-23T11:09:03.391Z,100013.60
2019-05-23T11:11:32.066Z,100005.52
2019-05-23T11:14:00.985Z,100005.66
2019-05-23T11:16:29.664Z,100005.59
2019-05-23T11:18:58.446Z,100000.28
2019-05-23T11:21:27.517Z,99999.20
2019-05-23T11:23:56.411Z,100003.34
2019-05-23T11:26:24.979Z,99996.92
2019-05-23T11:28:53.832Z,99993.33
2019-05-23T11:31:22.505Z,99988.95
2019-05-23T11:33:51.195Z,100000.72
2019-05-23T11:36:34.858Z,99996.62
2019-05-23T11:38:50.604Z,100001.78
2019-05-23T11:41:19.749Z,99991.67
2019-05-23T11:43:48.312Z,99994.72
2019-05-23T11:46:18.952Z,99986.63
2019-05-23T11:48:47.635Z,99984.10
2019-05-23T11:51:17.755Z,99976.21
2019-05-23T11:54:05.453Z,99974.38
2019-05-23T11:56:16.948Z,99978.22
2019-05-23T11:58:45.821Z,99975.73
2019-05-23T12:01:20.955Z,99982.25
2019-05-23T12:03:48.494Z,99974.03
2019-05-23T12:06:17.357Z,99975.07
2019-05-23T12:08:45.937Z,99976.54
2019-05-23T12:11:14.824Z,99966.52
2019-05-23T12:13:43.257Z,99956.13
2019-05-23T12:16:11.936Z,99962.09
2019-05-23T12:18:40.691Z,99961.94
2019-05-23T12:21:09.365Z,99950.38
2019-05-23T12:23:38.109Z,99942.64
2019-05-23T12:26:06.640Z,99943.25
2019-05-23T12:28:36.210Z,99942.56
2019-05-23T12:31:05.566Z,99937.73
2019-05-23T12:33:33.989Z,99932.02
2019-05-23T12:36:02.378Z,99937.19
2019-05-23T12:38:30.926Z,99929.48
2019-05-23T12:40:59.354Z,99929.12
2019-05-23T12:43:28.007Z,99940.50
2019-05-23T12:45:56.567Z,99932.37
2019-05-23T12:48:26.691Z,99930.22
2019-05-23T12:51:02.989Z,99918.08
2019-05-23T12:53:33.063Z,99920.44
2019-05-23T12:56:01.837Z,99923.65
2019-05-23T12:58:32.139Z,99913.16
2019-05-23T13:01:02.217Z,99905.66
2019-05-23T13:03:31.225Z,99910.69
2019-05-23T13:05:59.988Z,99905.52
2019-05-23T13:08:29.813Z,99903.36
2019-05-23T13:10:58.276Z,99902.61
2019-05-23T13:13:27.508Z,99905.47
2019-05-23T13:15:56.020Z,99916.98
2019-05-23T13:18:24.611Z,99913.53
2019-05-23T13:20:53.164Z,99905.86
2019-05-23T13:23:22.078Z,99905.47
2019-05-23T13:25:50.588Z,99898.76
2019-05-23T13:28:19.371Z,99896.34
2019-05-23T13:30:47.898Z,99890.07
2019-05-23T13:33:17.375Z,99895.26
2019-05-23T13:35:45.943Z,99896.86
2019-05-23T13:38:14.710Z,99897.41
2019-05-23T13:40:43.208Z,99890.91
2019-05-23T13:43:11.846Z,99886.97
2019-05-23T13:45:40.794Z,99885.21
2019-05-23T13:48:09.293Z,99880.65
2019-05-23T13:50:38.030Z,99888.51
2019-05-23T13:53:07.548Z,99889.31
2019-05-23T13:55:37.949Z,99881.53
2019-05-23T13:58:06.552Z,99838.53
2019-05-23T14:00:35.613Z,99874.45
2019-05-23T14:03:05.387Z,99874.22
2019-05-23T14:05:34.364Z,99862.21
2019-05-23T14:08:12.299Z,99875.23
2019-05-23T14:10:33.521Z,99868.59
2019-05-23T14:13:01.913Z,99872.71
2019-05-23T14:15:32.070Z,99869.88
2019-05-23T14:18:00.811Z,99863.91
2019-05-23T14:20:29.543Z,99863.84
2019-05-23T14:23:02.531Z,99855.79
2019-05-23T14:25:31.155Z,99852.10
2019-05-23T14:28:04.087Z,99849.66
2019-05-23T14:30:46.418Z,99847.58
2019-05-23T14:33:19.713Z,99842.27
2019-05-23T14:35:49.839Z,99846.81
2019-05-23T14:38:30.348Z,99848.27
2019-05-23T14:40:49.060Z,99840.17
2019-05-23T14:43:34.408Z,99839.10
2019-05-23T14:46:06.120Z,99837.34
2019-05-23T14:48:52.439Z,99839.89
2019-05-23T14:51:37.908Z,99824.56
2019-05-23T14:54:08.008Z,99825.73
2019-05-23T14:56:37.824Z,99824.77
2019-05-23T14:59:06.602Z,99818.54
2019-05-23T15:01:36.167Z,99822.33
2019-05-23T15:04:05.983Z,99819.07
2019-05-23T15:06:34.707Z,99824.43
2019-05-23T15:09:03.950Z,99811.03
2019-05-23T15:11:32.449Z,99809.99
2019-05-23T15:14:00.845Z,99805.88
2019-05-23T15:21:54.420Z,99802.62
2019-05-23T15:24:22.970Z,99807.30
2019-05-23T15:26:52.211Z,99804.83
2019-05-23T15:29:20.751Z,99797.53
2019-05-23T15:32:01.666Z,99806.20
2019-05-23T15:34:19.803Z,99802.80
2019-05-23T15:36:48.580Z,99803.30
2019-05-23T15:39:18.323Z,99799.05
2019-05-23T15:41:46.713Z,99799.78
2019-05-23T15:44:25.414Z,99799.75
2019-05-23T15:46:45.657Z,99800.70
2019-05-23T15:49:14.616Z,99796.07
2019-05-23T15:51:53.786Z,99797.78
2019-05-23T15:54:22.280Z,99793.70
2019-05-23T15:56:55.199Z,99794.79
2019-05-23T15:59:28.569Z,99797.16
2019-05-23T16:02:13.846Z,99793.37
2019-05-23T16:04:42.578Z,99795.48
2019-05-23T16:07:11.781Z,99781.66
2019-05-23T16:09:40.551Z,99780.86
2019-05-23T16:12:09.450Z,99783.52
2019-05-23T16:14:38.447Z,99791.00
2019-05-23T16:17:07.608Z,99776.69
2019-05-23T16:19:36.396Z,99781.03
2019-05-23T16:22:05.139Z,99778.58
2019-05-23T16:24:33.521Z,99777.98
2019-05-23T16:27:02.601Z,99772.83
2019-05-23T16:29:32.636Z,99771.78
2019-05-23T16:32:01.201Z,99767.76
2019-05-23T16:34:30.270Z,99761.27
2019-05-23T16:37:02.070Z,99765.05
2019-05-23T16:39:46.023Z,99766.32
2019-05-23T16:42:01.740Z,99760.41
2019-05-23T16:44:30.218Z,99766.36
2019-05-23T16:46:59.089Z,99771.73
2019-05-23T16:49:29.878Z,99770.36
2019-05-23T16:51:58.437Z,99768.14
2019-05-23T16:54:28.880Z,99766.30
2019-05-23T16:57:04.714Z,99765.73
2019-05-23T16:59:35.297Z,99761.92
2019-05-23T17:02:06.772Z,99762.98
2019-05-23T17:04:37.095Z,99764.08
2019-05-23T17:07:21.430Z,99766.48
2019-05-23T17:10:07.672Z,99767.94
2019-05-23T17:12:32.618Z,99755.27
2019-05-23T17:15:05.793Z,99761.14
2019-05-23T17:18:02.446Z,99766.75
2019-05-23T17:20:39.660Z,99759.72
2019-05-23T17:23:12.782Z,99756.23
2019-05-23T17:25:45.709Z,99754.59
2019-05-23T17:28:19.297Z,99749.69
2019-05-23T17:30:49.533Z,99758.62
2019-05-23T17:33:18.959Z,99751.29
2019-05-23T17:35:47.599Z,99751.02
2019-05-23T17:38:16.205Z,99754.77
2019-05-23T17:40:44.675Z,99750.43
2019-05-23T17:43:13.337Z,99746.88
2019-05-23T17:45:41.750Z,99748.13
2019-05-23T17:48:10.414Z,99740.31
2019-05-23T17:50:39.579Z,99747.58
2019-05-23T17:53:08.163Z,99747.78
2019-05-23T17:55:36.718Z,99742.86
2019-05-23T17:58:05.378Z,99745.22
2019-05-23T18:00:44.330Z,99747.89
2019-05-23T18:03:13.197Z,99746.71
2019-05-23T18:05:41.958Z,99744.75
2019-05-23T18:08:10.895Z,99743.59
2019-05-23T18:10:44.988Z,99745.62
2019-05-23T18:13:10.908Z,99746.28
2019-05-23T18:15:39.950Z,99744.38
2019-05-23T18:18:09.383Z,99747.81
2019-05-23T18:20:39.492Z,99751.22
2019-05-23T18:23:09.041Z,99747.59
2019-05-23T18:25:37.438Z,99749.61
2019-05-23T18:28:06.573Z,99747.91
2019-05-23T18:30:52.236Z,99744.03
2019-05-23T18:33:21.560Z,99751.54
2019-05-23T18:35:51.808Z,99752.19
2019-05-23T18:38:20.995Z,99752.31
2019-05-23T18:41:02.274Z,99711.30
2019-05-23T18:43:20.118Z,99762.55
2019-05-23T18:45:50.428Z,99760.50
2019-05-23T18:48:19.228Z,99768.09
2019-05-23T18:50:47.761Z,99766.64
2019-05-23T18:53:16.288Z,99762.64
2019-05-23T18:55:45.595Z,99768.79
2019-05-23T18:58:18.249Z,99776.97
2019-05-23T19:00:57.780Z,99779.81
2019-05-23T19:03:27.169Z,99781.30
2019-05-23T19:05:56.403Z,99782.84
2019-05-23T19:08:25.204Z,99781.52
2019-05-23T19:10:53.786Z,99781.93
2019-05-23T19:13:26.055Z,99780.23
2019-05-23T19:15:53.128Z,99784.77
2019-05-23T19:18:23.678Z,99785.98
2019-05-23T19:20:54.830Z,99781.38
2019-05-23T19:23:23.484Z,99785.03
2019-05-23T19:25:52.250Z,99788.50
2019-05-23T19:28:21.402Z,99784.73
2019-05-23T19:30:50.213Z,99786.55
2019-05-23T19:33:19.267Z,99790.28
2019-05-23T19:35:48.298Z,99791.44
2019-05-23T19:38:17.010Z,99790.17
2019-05-23T19:40:45.738Z,99796.32
2019-05-23T19:43:15.733Z,99798.15
2019-05-23T19:45:44.580Z,99799.92
2019-05-23T19:48:13.302Z,99800.05
2019-05-23T19:50:43.659Z,99808.88
2019-05-23T19:53:12.280Z,99809.48
2019-05-23T19:55:40.983Z,99804.05
2019-05-23T19:58:09.675Z,99798.70
2019-05-23T20:03:35.725Z,99802.80
2019-05-23T20:06:06.009Z,99802.92
2019-05-23T20:08:34.473Z,99804.95
2019-05-23T20:11:03.572Z,99793.14
2019-05-23T20:13:32.406Z,99796.84
2019-05-23T20:16:00.969Z,99794.91
2019-05-23T20:18:30.014Z,99796.09
2019-05-23T20:20:58.628Z,99796.83
2019-05-23T20:23:27.166Z,99795.52
2019-05-23T20:25:55.932Z,99796.53
2019-05-23T20:28:24.632Z,99796.02
2019-05-23T20:30:53.968Z,99794.67
2019-05-23T20:33:22.811Z,99798.41
2019-05-23T20:35:51.365Z,99788.52
2019-05-23T20:38:20.278Z,99792.24
2019-05-23T20:40:49.076Z,99796.28
2019-05-23T20:43:17.568Z,99788.63
2019-05-23T20:45:46.144Z,99791.83
2019-05-23T20:48:14.684Z,99792.44
2019-05-23T20:50:43.354Z,99789.94
2019-05-23T20:53:11.754Z,99787.37
2019-05-23T20:55:40.344Z,99788.86
2019-05-23T20:58:09.454Z,99790.77
2019-05-23T21:00:48.912Z,99790.51
2019-05-23T21:03:17.614Z,99793.50
2019-05-23T21:05:46.224Z,99795.52
2019-05-23T21:08:15.050Z,99796.64
2019-05-23T21:10:46.432Z,99797.23
2019-05-23T21:13:15.083Z,99801.94
2019-05-23T21:15:43.942Z,99792.84
2019-05-23T21:18:12.872Z,99797.04
2019-05-23T21:20:41.465Z,99800.33
2019-05-23T21:23:10.271Z,99800.84
2019-05-23T21:25:40.510Z,99800.34
2019-05-23T21:28:09.454Z,99798.30
2019-05-23T21:30:37.897Z,99805.06
2019-05-23T21:33:06.494Z,99800.36
2019-05-23T21:35:35.054Z,99800.94
2019-05-23T21:38:03.606Z,99807.88
2019-05-23T21:40:38.101Z,99810.03
2019-05-23T21:43:06.599Z,99802.13
2019-05-23T21:45:35.204Z,99805.39
2019-05-23T21:48:04.186Z,99801.48
2019-05-23T21:50:33.022Z,99810.98
2019-05-23T21:53:01.930Z,99808.48
2019-05-23T21:55:44.056Z,99812.03
2019-05-23T21:58:14.076Z,99809.63
2019-05-23T22:01:02.411Z,99774.30
2019-05-23T22:03:32.502Z,99809.45
2019-05-23T22:06:02.021Z,99807.22
2019-05-23T22:08:30.618Z,99801.34
2019-05-23T22:10:59.318Z,99800.01
2019-05-23T22:13:27.796Z,99798.99
2019-05-23T22:15:59.247Z,99796.41
2019-05-23T22:18:27.752Z,99793.22
2019-05-23T22:20:56.390Z,99787.47
2019-05-23T22:23:24.802Z,99792.86
2019-05-23T22:25:53.445Z,99787.01
2019-05-23T22:28:22.029Z,99787.90
2019-05-23T22:30:50.818Z,99792.05
2019-05-23T22:33:21.326Z,99788.92
2019-05-23T22:35:50.050Z,99788.67
2019-05-23T22:38:18.618Z,99789.69
2019-05-23T22:40:47.079Z,99791.39
2019-05-23T22:43:21.023Z,99794.87
2019-05-23T22:45:46.483Z,99786.94
2019-05-23T22:48:14.967Z,99793.22
2019-05-23T22:50:43.372Z,99795.44
2019-05-23T22:53:11.946Z,99799.86
2019-05-23T22:55:40.334Z,99794.30
2019-05-23T22:58:09.153Z,99799.56
2019-05-23T23:00:42.039Z,99798.05
2019-05-23T23:03:10.432Z,99798.15
2019-05-23T23:05:39.358Z,99804.05
2019-05-23T23:08:08.799Z,99796.58
2019-05-23T23:10:37.265Z,99793.53
2019-05-23T23:13:05.978Z,99795.17
2019-05-23T23:15:34.624Z,99794.93
2019-05-23T23:18:03.138Z,99788.30
2019-05-23T23:20:31.941Z,99786.39
2019-05-23T23:23:00.342Z,99784.20
2019-05-23T23:25:28.863Z,99784.44
2019-05-23T23:27:57.326Z,99783.43
2019-05-23T23:30:36.080Z,99776.61
2019-05-23T23:33:04.640Z,99773.05
2019-05-23T23:35:33.838Z,99778.12
2019-05-23T23:38:02.494Z,99725.75
2019-05-23T23:40:31.057Z,99766.50
2019-05-23T23:42:59.568Z,99769.89
2019-05-23T23:45:45.915Z,99768.06
2019-05-23T23:48:31.926Z,99767.05
2019-05-23T23:51:18.638Z,99770.20
2019-05-23T23:54:04.970Z,99772.21
2019-05-23T23:56:51.628Z,99771.02
2019-05-23T23:59:19.330Z,99768.08
